createdAt,value
2023-02-11T00:01:36.870Z,28.90
2023-02-11T00:04:06.406Z,24.58
2023-02-11T00:06:35.262Z,26.23
2023-02-11T00:09:03.720Z,27.23
2023-02-11T00:11:33.812Z,27.70
2023-02-11T00:14:08.496Z,28.08
2023-02-11T00:16:37.425Z,24.77
2023-02-11T00:19:06.519Z,28.15
2023-02-11T00:21:35.764Z,25.40
2023-02-11T00:24:03.583Z,26.77
2023-02-11T00:26:33.558Z,28.63
2023-02-11T00:29:01.735Z,25.73
2023-02-11T00:31:31.566Z,25.10
2023-02-11T00:33:58.300Z,29.88
2023-02-11T00:36:30.310Z,27.63
2023-02-11T00:39:00.485Z,26.77
2023-02-11T00:41:28.380Z,32.13
2023-02-11T00:44:01.369Z,27.83
2023-02-11T00:46:28.368Z,27.45
2023-02-11T00:48:57.546Z,31.80
2023-02-11T00:51:28.398Z,26.42
2023-02-11T00:53:55.896Z,27.92
2023-02-11T00:56:23.000Z,28.70
2023-02-11T00:58:49.882Z,28.75
2023-02-11T01:01:17.482Z,26.20
2023-02-11T01:03:46.318Z,28.85
2023-02-11T01:06:17.622Z,27.77
2023-02-11T01:08:47.324Z,32.40
2023-02-11T01:11:18.355Z,25.77
2023-02-11T01:13:46.170Z,26.83
2023-02-11T01:16:15.990Z,25.60
2023-02-11T01:18:47.683Z,31.63
2023-02-11T01:21:19.755Z,28.45
2023-02-11T01:23:46.413Z,27.48
2023-02-11T01:26:13.324Z,27.67
2023-02-11T01:28:40.191Z,27.75
2023-02-11T01:31:09.055Z,28.17
2023-02-11T01:33:35.811Z,23.50
2023-02-11T01:36:07.401Z,29.58
2023-02-11T01:38:35.591Z,28.27
2023-02-11T01:41:06.499Z,26.70
2023-02-11T01:43:40.636Z,27.25
2023-02-11T01:46:31.216Z,28.35
2023-02-11T01:49:04.754Z,26.63
2023-02-11T01:51:37.848Z,28.05
2023-02-11T01:54:25.696Z,27.73
2023-02-11T01:57:15.257Z,26.58
2023-02-11T01:59:50.310Z,23.95
2023-02-11T02:02:32.592Z,26.25
2023-02-11T02:05:18.911Z,24.85
2023-02-11T02:08:13.344Z,28.38
2023-02-11T02:10:48.213Z,25.85
2023-02-11T02:13:17.255Z,30.45
2023-02-11T02:15:53.358Z,27.60
2023-02-11T02:18:55.973Z,26.25
2023-02-11T02:22:07.284Z,23.08
2023-02-11T02:24:56.531Z,26.45
2023-02-11T02:28:05.106Z,26.58
2023-02-11T02:31:10.458Z,25.80
2023-02-11T02:33:58.232Z,26.48
2023-02-11T02:36:50.468Z,27.83
2023-02-11T02:39:29.998Z,25.52
2023-02-11T02:41:58.398Z,25.40
2023-02-11T02:44:25.772Z,25.63
2023-02-11T02:46:52.397Z,29.63
2023-02-11T02:49:21.368Z,23.48
2023-02-11T02:52:03.845Z,26.52
2023-02-11T02:57:56.238Z,20.17
2023-02-11T03:00:34.832Z,22.15
2023-02-11T03:03:24.470Z,22.83
2023-02-11T03:06:15.247Z,23.48
2023-02-11T03:08:50.908Z,23.13
2023-02-11T03:11:19.269Z,23.77
2023-02-11T03:13:48.113Z,22.58
2023-02-11T03:16:23.241Z,21.60
2023-02-11T03:19:14.752Z,22.35
2023-02-11T03:21:43.616Z,20.15
2023-02-11T03:24:24.158Z,23.00
2023-02-11T03:26:54.640Z,21.52
2023-02-11T03:29:54.797Z,20.58
2023-02-11T03:32:30.994Z,21.02
2023-02-11T03:35:00.793Z,17.95
2023-02-11T03:37:43.155Z,23.52
2023-02-11T03:40:19.228Z,22.27
2023-02-11T03:42:53.256Z,26.13
2023-02-11T03:45:23.198Z,21.90
2023-02-11T03:47:54.821Z,23.80
2023-02-11T03:50:27.367Z,20.27
2023-02-11T03:53:00.433Z,21.83
2023-02-11T03:55:31.589Z,18.90
2023-02-11T03:57:59.014Z,22.45
2023-02-11T04:00:35.431Z,20.77
2023-02-11T04:03:03.112Z,18.38
2023-02-11T04:05:29.778Z,21.58
2023-02-11T04:07:56.326Z,18.20
2023-02-11T04:10:22.904Z,18.83
2023-02-11T04:12:49.473Z,16.92
2023-02-11T04:15:20.841Z,20.75
2023-02-11T04:17:47.410Z,21.30
2023-02-11T04:20:14.491Z,19.27
2023-02-11T04:22:41.103Z,21.88
2023-02-11T04:25:10.728Z,15.80
2023-02-11T04:27:39.848Z,21.50
2023-02-11T04:30:07.704Z,18.13
2023-02-11T04:32:36.756Z,24.38
2023-02-11T04:35:05.758Z,19.80
2023-02-11T04:37:34.751Z,20.85
2023-02-11T04:40:01.461Z,19.33
2023-02-11T04:42:28.129Z,17.08
2023-02-11T04:44:54.708Z,21.02
2023-02-11T04:47:26.193Z,22.27
2023-02-11T04:49:57.921Z,20.13
2023-02-11T04:52:24.567Z,19.25
2023-02-11T04:54:53.666Z,27.13
2023-02-11T04:57:23.170Z,18.17
2023-02-11T04:59:49.990Z,16.13
2023-02-11T05:02:22.806Z,21.35
2023-02-11T05:04:49.358Z,23.17
2023-02-11T05:07:21.197Z,20.30
2023-02-11T05:09:47.731Z,17.67
2023-02-11T05:12:14.440Z,20.42
2023-02-11T05:14:41.323Z,20.95
2023-02-11T05:17:12.787Z,18.38
2023-02-11T05:19:39.352Z,22.67
2023-02-11T05:22:08.589Z,21.17
2023-02-11T05:24:36.378Z,20.35
2023-02-11T05:27:05.399Z,18.40
2023-02-11T05:29:34.442Z,20.77
2023-02-11T05:32:06.126Z,19.20
2023-02-11T05:34:32.795Z,21.70
2023-02-11T05:37:01.967Z,19.23
2023-02-11T05:39:31.094Z,21.85
2023-02-11T05:42:02.594Z,19.35
2023-02-11T05:44:31.656Z,16.60
2023-02-11T05:46:58.198Z,20.85
2023-02-11T05:49:24.880Z,20.70
2023-02-11T05:52:05.374Z,20.20
2023-02-11T05:54:36.109Z,21.08
2023-02-11T05:57:08.671Z,22.17
2023-02-11T05:59:35.425Z,20.55
2023-02-11T06:02:04.384Z,21.77
2023-02-11T06:04:33.411Z,23.85
2023-02-11T06:07:01.810Z,24.67
2023-02-11T06:09:29.410Z,22.65
2023-02-11T06:12:01.542Z,27.20
2023-02-11T06:14:33.682Z,22.13
2023-02-11T06:17:02.933Z,24.92
2023-02-11T06:19:31.963Z,24.70
2023-02-11T06:22:00.980Z,17.00
2023-02-11T06:24:51.034Z,20.48
2023-02-11T06:27:19.174Z,20.35
2023-02-11T06:29:46.229Z,23.23
2023-02-11T06:32:36.897Z,21.70
2023-02-11T06:35:04.706Z,19.80
2023-02-11T06:37:31.287Z,19.80
2023-02-11T06:40:00.350Z,22.13
2023-02-11T06:42:37.976Z,20.45
2023-02-11T06:45:07.938Z,25.02
2023-02-11T06:47:37.530Z,25.90
2023-02-11T06:50:05.670Z,23.67
2023-02-11T06:52:37.505Z,21.05
2023-02-11T06:55:08.790Z,23.48
2023-02-11T06:57:35.417Z,28.33
2023-02-11T07:00:02.432Z,22.52
2023-02-11T07:02:30.094Z,33.17
2023-02-11T07:05:03.038Z,24.35
2023-02-11T07:07:34.213Z,28.10
2023-02-11T07:10:04.082Z,25.65
2023-02-11T07:12:31.745Z,21.75
2023-02-11T07:14:58.303Z,22.73
2023-02-11T07:17:27.435Z,24.90
2023-02-11T07:20:01.278Z,25.52
2023-02-11T07:22:33.354Z,28.10
2023-02-11T07:25:05.302Z,27.85
2023-02-11T07:27:31.998Z,24.42
2023-02-11T07:30:04.915Z,22.02
2023-02-11T07:32:35.806Z,26.27
2023-02-11T07:35:03.671Z,24.13
2023-02-11T07:37:30.274Z,28.55
2023-02-11T07:39:56.870Z,25.33
2023-02-11T07:42:23.979Z,28.30
2023-02-11T07:44:50.781Z,26.08
2023-02-11T07:47:17.402Z,26.92
2023-02-11T07:49:44.073Z,30.90
2023-02-11T07:52:10.684Z,24.48
2023-02-11T07:54:37.328Z,26.50
2023-02-11T07:57:03.938Z,32.33
2023-02-11T07:59:30.531Z,24.20
2023-02-11T08:01:57.224Z,27.27
2023-02-11T08:04:23.812Z,29.38
2023-02-11T08:06:52.623Z,30.48
2023-02-11T08:09:19.302Z,28.08
2023-02-11T08:11:45.882Z,27.55
2023-02-11T08:14:13.646Z,28.35
2023-02-11T08:16:40.660Z,28.00
2023-02-11T08:19:14.040Z,25.20
2023-02-11T08:21:41.183Z,32.60
2023-02-11T08:24:08.606Z,25.23
2023-02-11T08:26:35.934Z,29.70
2023-02-11T08:29:07.264Z,35.70
2023-02-11T08:31:37.250Z,34.13
2023-02-11T08:34:03.915Z,32.17
2023-02-11T08:36:33.995Z,34.65
2023-02-11T08:39:18.009Z,29.75
2023-02-11T08:41:48.594Z,34.38
2023-02-11T08:44:15.308Z,36.55
2023-02-11T08:46:41.889Z,31.35
2023-02-11T08:49:08.552Z,29.83
2023-02-11T08:51:35.146Z,31.75
2023-02-11T08:54:02.168Z,33.20
2023-02-11T08:56:31.265Z,27.23
2023-02-11T08:58:59.886Z,29.25
2023-02-11T09:01:29.540Z,37.15
2023-02-11T09:03:57.148Z,33.47
2023-02-11T09:06:24.864Z,32.63
2023-02-11T09:08:54.973Z,32.88
2023-02-11T09:11:26.310Z,32.92
2023-02-11T09:13:54.513Z,29.30
2023-02-11T09:16:27.432Z,33.35
2023-02-11T09:18:56.290Z,30.67
2023-02-11T09:21:23.140Z,37.00
2023-02-11T09:23:49.812Z,35.83
2023-02-11T09:26:21.354Z,35.10
2023-02-11T09:28:48.758Z,38.22
2023-02-11T09:31:18.834Z,37.38
2023-02-11T09:33:48.296Z,34.03
2023-02-11T09:36:20.011Z,32.80
2023-02-11T09:38:47.680Z,36.50
2023-02-11T09:41:56.292Z,35.67
2023-02-11T09:44:29.267Z,37.03
2023-02-11T09:47:02.633Z,34.15
2023-02-11T09:49:36.906Z,34.28
2023-02-11T09:52:35.344Z,35.30
2023-02-11T09:55:18.567Z,37.75
2023-02-11T09:57:45.381Z,34.65
2023-02-11T10:00:23.828Z,38.03
2023-02-11T10:03:08.903Z,37.72
2023-02-11T10:05:56.343Z,35.38
2023-02-11T10:08:41.251Z,41.38
2023-02-11T10:11:32.051Z,37.47
2023-02-11T10:14:19.981Z,38.67
2023-02-11T10:17:09.047Z,41.45
2023-02-11T10:19:41.124Z,34.33
2023-02-11T10:22:19.946Z,34.97
2023-02-11T10:25:00.407Z,40.45
2023-02-11T10:27:32.862Z,40.65
2023-02-11T10:30:15.915Z,33.75
2023-02-11T10:33:02.041Z,48.80
2023-02-11T10:35:32.105Z,39.90
2023-02-11T10:37:59.820Z,38.65
2023-02-11T10:40:30.857Z,36.95
2023-02-11T10:43:00.902Z,40.30
2023-02-11T10:45:44.037Z,37.38
2023-02-11T10:48:41.938Z,35.05
2023-02-11T10:51:19.002Z,35.50
2023-02-11T10:53:47.193Z,39.85
2023-02-11T10:56:24.126Z,43.15
2023-02-11T10:59:05.557Z,43.15
2023-02-11T11:01:58.933Z,38.05
2023-02-11T11:04:37.064Z,40.60
2023-02-11T11:07:21.930Z,38.50
2023-02-11T11:09:56.664Z,41.47
2023-02-11T11:12:28.173Z,38.92
2023-02-11T11:15:23.306Z,35.53
2023-02-11T11:17:51.604Z,33.33
2023-02-11T11:20:28.012Z,43.22
2023-02-11T11:23:19.573Z,38.00
2023-02-11T11:26:18.762Z,38.28
2023-02-11T11:28:59.653Z,39.50
2023-02-11T11:31:37.430Z,43.17
2023-02-11T11:34:23.000Z,40.42
2023-02-11T11:36:50.238Z,37.40
2023-02-11T11:39:32.047Z,42.65
2023-02-11T11:41:59.883Z,42.50
2023-02-11T11:44:35.972Z,35.78
2023-02-11T11:47:11.235Z,41.10
2023-02-11T11:49:45.470Z,43.22
2023-02-11T11:52:32.660Z,40.70
2023-02-11T11:55:07.751Z,40.22
2023-02-11T11:57:37.715Z,43.90
2023-02-11T12:00:05.183Z,38.08
2023-02-11T12:02:32.771Z,35.33
2023-02-11T12:05:08.315Z,40.55
2023-02-11T12:08:07.931Z,41.00
2023-02-11T12:10:58.483Z,43.63
2023-02-11T12:13:55.046Z,39.97
2023-02-11T12:16:59.034Z,40.95
2023-02-11T12:19:52.746Z,35.10
2023-02-11T12:22:40.967Z,38.17
2023-02-11T12:25:26.109Z,39.90
2023-02-11T12:28:01.796Z,42.72
2023-02-11T12:30:49.014Z,41.08
2023-02-11T12:33:36.959Z,40.03
2023-02-11T12:36:06.505Z,35.38
2023-02-11T12:39:09.108Z,39.05
2023-02-11T12:42:28.534Z,42.63
2023-02-11T12:45:16.038Z,39.15
2023-02-11T12:47:54.489Z,41.30
2023-02-11T12:50:27.669Z,40.40
2023-02-11T12:53:23.654Z,38.40
2023-02-11T12:55:57.833Z,39.38
2023-02-11T12:58:42.933Z,38.58
2023-02-11T13:01:23.478Z,40.10
2023-02-11T13:03:58.791Z,39.35
2023-02-11T13:06:44.353Z,40.50
2023-02-11T13:09:18.891Z,45.22
2023-02-11T13:11:51.855Z,38.60
2023-02-11T13:14:28.256Z,43.20
2023-02-11T13:16:56.922Z,35.47
2023-02-11T13:19:31.382Z,40.05
2023-02-11T13:22:18.828Z,43.15
2023-02-11T13:25:06.490Z,42.10
2023-02-11T13:28:02.413Z,41.00
2023-02-11T13:30:34.405Z,35.30
2023-02-11T13:33:00.987Z,42.17
2023-02-11T13:35:31.934Z,40.35
2023-02-11T13:38:05.389Z,45.45
2023-02-11T13:40:38.147Z,40.13
2023-02-11T13:43:06.979Z,38.30
2023-02-11T13:45:44.891Z,37.78
2023-02-11T13:48:30.817Z,45.20
2023-02-11T13:51:07.633Z,39.95
2023-02-11T13:53:48.680Z,41.05
2023-02-11T13:56:33.773Z,41.20
2023-02-11T13:59:03.319Z,36.85
2023-02-11T14:02:13.842Z,37.40
2023-02-11T14:05:21.518Z,41.28
2023-02-11T14:08:28.634Z,39.08
2023-02-11T14:11:25.043Z,37.15
2023-02-11T14:13:51.647Z,36.83
2023-02-11T14:16:36.388Z,38.28
2023-02-11T14:19:03.848Z,37.85
2023-02-11T14:21:36.574Z,40.53
2023-02-11T14:24:04.729Z,35.35
2023-02-11T14:26:41.341Z,40.38
2023-02-11T14:29:22.779Z,39.47
2023-02-11T14:32:15.516Z,39.63
2023-02-11T14:37:50.039Z,34.75
2023-02-11T14:40:52.955Z,37.85
2023-02-11T14:43:31.301Z,38.28
2023-02-11T14:46:01.172Z,38.83
2023-02-11T14:48:31.124Z,43.70
2023-02-11T14:51:33.247Z,37.45
2023-02-11T14:54:25.186Z,36.00
2023-02-11T14:57:24.954Z,38.90
2023-02-11T14:59:58.673Z,40.47
2023-02-11T15:02:34.632Z,44.28
2023-02-11T15:05:26.001Z,41.72
2023-02-11T15:08:01.600Z,42.95
2023-02-11T15:10:35.824Z,38.95
2023-02-11T15:13:04.480Z,40.90
2023-02-11T15:15:33.543Z,42.97
2023-02-11T15:18:03.368Z,38.55
2023-02-11T15:20:32.854Z,40.88
2023-02-11T15:23:03.190Z,42.08
2023-02-11T15:25:32.320Z,40.63
2023-02-11T15:28:21.634Z,42.83
2023-02-11T15:31:00.895Z,44.63
2023-02-11T15:33:30.518Z,43.45
2023-02-11T15:35:58.026Z,37.97
2023-02-11T15:38:27.764Z,45.35
2023-02-11T15:41:00.797Z,46.22
2023-02-11T15:43:43.834Z,39.53
2023-02-11T15:46:14.278Z,41.08
2023-02-11T15:48:47.247Z,37.25
2023-02-11T15:51:22.214Z,37.65
2023-02-11T15:53:56.890Z,43.72
2023-02-11T15:56:37.414Z,40.97
2023-02-11T15:59:25.598Z,45.28
2023-02-11T16:01:53.218Z,45.25
2023-02-11T16:04:25.890Z,41.47
2023-02-11T16:06:54.484Z,42.50
2023-02-11T16:09:34.409Z,41.20
2023-02-11T16:12:07.281Z,44.35
2023-02-11T16:14:39.194Z,43.30
2023-02-11T16:17:17.213Z,48.97
2023-02-11T16:19:47.279Z,42.95
2023-02-11T16:22:22.949Z,38.10
2023-02-11T16:24:52.586Z,42.65
2023-02-11T16:27:23.860Z,44.30
2023-02-11T16:29:51.701Z,40.28
2023-02-11T16:32:21.571Z,44.83
2023-02-11T16:34:48.866Z,46.13
2023-02-11T16:37:15.973Z,43.17
2023-02-11T16:39:42.602Z,41.65
2023-02-11T16:42:11.498Z,42.17
2023-02-11T16:44:38.672Z,43.53
2023-02-11T16:47:08.133Z,46.03
2023-02-11T16:49:38.266Z,46.25
2023-02-11T16:52:12.678Z,39.35
2023-02-11T16:54:39.370Z,44.53
2023-02-11T16:57:14.585Z,43.58
2023-02-11T16:59:41.491Z,44.65
2023-02-11T17:02:27.778Z,50.53
2023-02-11T17:04:55.987Z,47.22
2023-02-11T17:07:22.799Z,49.17
2023-02-11T17:09:49.471Z,50.33
2023-02-11T17:12:16.046Z,47.35
2023-02-11T17:14:42.581Z,44.63
2023-02-11T17:17:10.228Z,48.70
2023-02-11T17:19:37.307Z,47.83
2023-02-11T17:22:04.337Z,46.53
2023-02-11T17:24:31.282Z,46.60
2023-02-11T17:26:58.020Z,45.35
2023-02-11T17:29:25.986Z,49.20
2023-02-11T17:31:53.042Z,46.97
2023-02-11T17:34:21.366Z,50.40
2023-02-11T17:36:50.643Z,47.33
2023-02-11T17:39:20.947Z,48.42
2023-02-11T17:41:47.672Z,49.20
2023-02-11T17:44:16.617Z,46.28
2023-02-11T17:46:43.847Z,49.97
2023-02-11T17:49:12.713Z,47.63
2023-02-11T17:51:45.566Z,48.88
2023-02-11T17:54:17.997Z,48.25
2023-02-11T17:56:50.553Z,43.90
2023-02-11T17:59:17.610Z,48.45
2023-02-11T18:01:46.322Z,47.08
2023-02-11T18:04:15.967Z,51.22
2023-02-11T18:06:44.316Z,53.03
2023-02-11T18:09:11.317Z,50.28
2023-02-11T18:11:38.955Z,51.17
2023-02-11T18:14:07.633Z,48.05
2023-02-11T18:16:40.730Z,54.60
2023-02-11T18:19:07.863Z,49.25
2023-02-11T18:21:34.640Z,53.15
2023-02-11T18:24:06.447Z,52.00
2023-02-11T18:29:05.934Z,46.20
2023-02-11T18:31:35.077Z,46.05
2023-02-11T18:34:05.744Z,52.10
2023-02-11T18:36:32.639Z,66.53
2023-02-11T18:39:04.621Z,59.70
2023-02-11T18:41:31.281Z,57.75
2023-02-11T18:43:58.664Z,54.63
2023-02-11T18:46:25.399Z,52.78
2023-02-11T18:48:55.570Z,49.70
2023-02-11T18:51:23.000Z,50.60
2023-02-11T18:53:49.660Z,51.65
2023-02-11T18:56:22.037Z,49.22
2023-02-11T19:01:26.970Z,59.72
2023-02-11T19:03:55.457Z,57.20
2023-02-11T19:06:31.806Z,55.47
2023-02-11T19:09:08.774Z,57.60
2023-02-11T19:11:54.650Z,60.45
2023-02-11T19:14:27.128Z,53.55
2023-02-11T19:17:00.384Z,53.13
2023-02-11T19:19:31.849Z,55.70
2023-02-11T19:22:02.979Z,57.23
2023-02-11T19:24:30.127Z,51.30
2023-02-11T19:26:59.630Z,58.95
2023-02-11T19:29:26.748Z,50.20
2023-02-11T19:32:07.718Z,54.05
2023-02-11T19:34:40.993Z,46.80
2023-02-11T19:37:11.620Z,54.47
2023-02-11T19:39:43.706Z,53.97
2023-02-11T19:42:11.186Z,52.78
2023-02-11T19:44:38.127Z,51.63
2023-02-11T19:47:07.192Z,54.92
2023-02-11T19:49:34.383Z,56.78
2023-02-11T19:52:00.953Z,53.00
2023-02-11T19:54:32.684Z,51.83
2023-02-11T19:57:03.476Z,56.05
2023-02-11T19:59:30.216Z,50.63
2023-02-11T20:01:57.479Z,50.88
2023-02-11T20:04:26.466Z,49.67
2023-02-11T20:06:55.182Z,54.97
2023-02-11T20:09:24.084Z,52.40
2023-02-11T20:11:55.840Z,59.67
2023-02-11T20:14:27.739Z,50.47
2023-02-11T20:16:54.540Z,55.42
2023-02-11T20:19:24.649Z,51.70
2023-02-11T20:21:57.792Z,53.08
2023-02-11T20:24:25.617Z,51.63
2023-02-11T20:27:01.005Z,52.65
2023-02-11T20:29:37.762Z,48.03
2023-02-11T20:32:08.052Z,53.25
2023-02-11T20:34:34.816Z,50.25
2023-02-11T20:37:06.511Z,50.63
2023-02-11T20:39:37.249Z,56.50
2023-02-11T20:42:06.311Z,47.90
2023-02-11T20:44:32.902Z,49.63
2023-02-11T20:47:02.076Z,53.83
2023-02-11T20:49:29.884Z,56.30
2023-02-11T20:52:00.733Z,53.50
2023-02-11T20:54:27.486Z,55.03
2023-02-11T20:56:58.962Z,49.53
2023-02-11T20:59:26.872Z,50.95
2023-02-11T21:01:57.802Z,52.17
2023-02-11T21:04:38.500Z,49.95
2023-02-11T21:07:12.884Z,52.72
2023-02-11T21:09:39.951Z,47.35
2023-02-11T21:12:07.647Z,49.83
2023-02-11T21:14:38.843Z,46.72
2023-02-11T21:17:09.233Z,52.15
2023-02-11T21:19:43.810Z,52.47
2023-02-11T21:22:15.402Z,48.95
2023-02-11T21:24:44.354Z,45.95
2023-02-11T21:27:13.780Z,48.03
2023-02-11T21:29:52.797Z,53.00
2023-02-11T21:32:22.259Z,45.88
2023-02-11T21:34:49.075Z,51.80
2023-02-11T21:37:18.128Z,53.17
2023-02-11T21:39:46.833Z,49.78
2023-02-11T21:42:15.793Z,48.20
2023-02-11T21:44:42.511Z,48.90
2023-02-11T21:47:09.091Z,47.78
2023-02-11T21:49:37.123Z,48.33
2023-02-11T21:52:11.753Z,49.45
2023-02-11T21:54:40.978Z,48.30
2023-02-11T21:57:09.842Z,53.75
2023-02-11T21:59:36.389Z,48.33
2023-02-11T22:02:06.000Z,48.33
2023-02-11T22:04:37.510Z,51.40
2023-02-11T22:07:07.692Z,49.43
2023-02-11T22:09:41.427Z,49.25
2023-02-11T22:12:25.067Z,48.10
2023-02-11T22:14:51.675Z,53.17
2023-02-11T22:17:22.925Z,50.67
2023-02-11T22:19:49.769Z,49.58
2023-02-11T22:22:18.180Z,50.42
2023-02-11T22:24:47.252Z,49.85
2023-02-11T22:27:21.171Z,54.50
2023-02-11T22:29:50.147Z,55.50
2023-02-11T22:32:21.446Z,50.15
2023-02-11T22:34:48.108Z,49.35
2023-02-11T22:37:14.951Z,51.97
2023-02-11T22:39:42.537Z,48.85
2023-02-11T22:42:11.942Z,51.78
2023-02-11T22:44:43.979Z,53.53
2023-02-11T22:47:10.601Z,47.58
2023-02-11T22:49:37.392Z,48.08
2023-02-11T22:52:08.967Z,53.80
2023-02-11T22:54:41.546Z,55.15
2023-02-11T22:57:08.328Z,51.25
2023-02-11T22:59:35.907Z,49.60
2023-02-11T23:02:02.614Z,51.53
2023-02-11T23:04:29.274Z,53.78
2023-02-11T23:06:55.857Z,58.50
2023-02-11T23:09:22.536Z,54.42
2023-02-11T23:11:54.174Z,54.30
2023-02-11T23:14:21.294Z,52.40
2023-02-11T23:16:49.866Z,59.15
2023-02-11T23:19:16.951Z,62.17
2023-02-11T23:21:47.099Z,54.80
2023-02-11T23:24:15.686Z,55.42
2023-02-11T23:26:43.849Z,59.03
2023-02-11T23:29:13.343Z,51.53
2023-02-11T23:31:45.110Z,53.40
2023-02-11T23:34:18.978Z,53.47
2023-02-11T23:36:45.612Z,55.17
2023-02-11T23:39:16.760Z,52.88
2023-02-11T23:41:43.390Z,51.17
2023-02-11T23:44:10.835Z,50.42
2023-02-11T23:46:38.935Z,50.85
2023-02-11T23:49:08.008Z,51.88
2023-02-11T23:51:34.585Z,47.83
2023-02-11T23:54:02.299Z,51.05
2023-02-11T23:56:29.152Z,53.15
2023-02-11T23:58:58.941Z,52.85
